sensor_id;sensor_type;location;lat;lon;timestamp;P1;durP1;ratioP1;P2;durP2;ratioP2
29196;SDS011;62796;42.654;23.316;2023-06-01T00:01:47;12.82;;;8.73;;
29196;SDS011;62796;42.654;23.316;2023-06-01T00:04:12;14.70;;;9.88;;
29196;SDS011;62796;42.654;23.316;2023-06-01T00:06:38;13.13;;;9.32;;
29196;SDS011;62796;42.654;23.316;2023-06-01T00:09:04;12.38;;;9.05;;
29196;SDS011;62796;42.654;23.316;2023-06-01T00:11:30;13.40;;;8.98;;
29196;SDS011;62796;42.654;23.316;2023-06-01T00:13:55;13.07;;;9.00;;
29196;SDS011;62796;42.654;23.316;2023-06-01T00:16:21;17.08;;;8.80;;
29196;SDS011;62796;42.654;23.316;2023-06-01T00:18:47;12.73;;;7.93;;
29196;SDS011;62796;42.654;23.316;2023-06-01T00:21:13;13.93;;;8.63;;
29196;SDS011;62796;42.654;23.316;2023-06-01T00:23:38;12.05;;;8.18;;
29196;SDS011;62796;42.654;23.316;2023-06-01T00:26:06;11.15;;;8.52;;
29196;SDS011;62796;42.654;23.316;2023-06-01T00:28:32;15.38;;;9.00;;
29196;SDS011;62796;42.654;23.316;2023-06-01T00:30:59;13.82;;;8.40;;
29196;SDS011;62796;42.654;23.316;2023-06-01T00:33:24;13.10;;;8.65;;
29196;SDS011;62796;42.654;23.316;2023-06-01T00:35:49;15.68;;;8.98;;
29196;SDS011;62796;42.654;23.316;2023-06-01T00:38:15;13.43;;;8.48;;
29196;SDS011;62796;42.654;23.316;2023-06-01T00:40:40;10.10;;;8.50;;
29196;SDS011;62796;42.654;23.316;2023-06-01T00:43:06;16.92;;;8.68;;
29196;SDS011;62796;42.654;23.316;2023-06-01T00:45:31;13.90;;;8.95;;
29196;SDS011;62796;42.654;23.316;2023-06-01T00:47:57;15.77;;;9.43;;
29196;SDS011;62796;42.654;23.316;2023-06-01T00:50:23;14.07;;;8.73;;
29196;SDS011;62796;42.654;23.316;2023-06-01T00:52:49;16.30;;;9.52;;
29196;SDS011;62796;42.654;23.316;2023-06-01T00:55:15;13.27;;;9.18;;
29196;SDS011;62796;42.654;23.316;2023-06-01T00:57:42;17.48;;;9.48;;
29196;SDS011;62796;42.654;23.316;2023-06-01T01:00:08;13.63;;;9.23;;
29196;SDS011;62796;42.654;23.316;2023-06-01T01:02:38;13.30;;;8.90;;
29196;SDS011;62796;42.654;23.316;2023-06-01T01:05:05;10.35;;;8.48;;
29196;SDS011;62796;42.654;23.316;2023-06-01T01:15:44;15.60;;;9.00;;
29196;SDS011;62796;42.654;23.316;2023-06-01T01:18:16;13.23;;;8.10;;
29196;SDS011;62796;42.654;23.316;2023-06-01T01:20:51;14.02;;;9.30;;
29196;SDS011;62796;42.654;23.316;2023-06-01T01:29:13;13.57;;;9.88;;
29196;SDS011;62796;42.654;23.316;2023-06-01T01:31:40;13.88;;;9.82;;
29196;SDS011;62796;42.654;23.316;2023-06-01T01:34:07;16.08;;;9.60;;
29196;SDS011;62796;42.654;23.316;2023-06-01T01:36:34;13.52;;;9.55;;
29196;SDS011;62796;42.654;23.316;2023-06-01T01:39:01;16.90;;;10.70;;
29196;SDS011;62796;42.654;23.316;2023-06-01T01:41:27;18.67;;;10.63;;
29196;SDS011;62796;42.654;23.316;2023-06-01T01:43:53;18.52;;;10.70;;
29196;SDS011;62796;42.654;23.316;2023-06-01T01:46:26;15.93;;;9.75;;
29196;SDS011;62796;42.654;23.316;2023-06-01T01:51:54;14.38;;;10.02;;
29196;SDS011;62796;42.654;23.316;2023-06-01T01:54:27;13.13;;;9.48;;
29196;SDS011;62796;42.654;23.316;2023-06-01T01:56:53;18.95;;;9.65;;
29196;SDS011;62796;42.654;23.316;2023-06-01T01:59:24;16.23;;;9.02;;
29196;SDS011;62796;42.654;23.316;2023-06-01T02:01:51;12.70;;;8.95;;
29196;SDS011;62796;42.654;23.316;2023-06-01T02:04:17;17.98;;;10.43;;
29196;SDS011;62796;42.654;23.316;2023-06-01T02:06:43;16.42;;;9.32;;
29196;SDS011;62796;42.654;23.316;2023-06-01T02:09:08;12.82;;;9.65;;
29196;SDS011;62796;42.654;23.316;2023-06-01T02:11:37;18.13;;;10.77;;
29196;SDS011;62796;42.654;23.316;2023-06-01T02:14:03;14.80;;;9.68;;
29196;SDS011;62796;42.654;23.316;2023-06-01T02:16:29;12.70;;;9.65;;
29196;SDS011;62796;42.654;23.316;2023-06-01T02:18:55;18.02;;;11.93;;
29196;SDS011;62796;42.654;23.316;2023-06-01T02:21:22;18.67;;;12.75;;
29196;SDS011;62796;42.654;23.316;2023-06-01T02:23:48;22.05;;;12.02;;
29196;SDS011;62796;42.654;23.316;2023-06-01T02:26:14;20.33;;;11.38;;
29196;SDS011;62796;42.654;23.316;2023-06-01T02:28:39;19.52;;;11.48;;
29196;SDS011;62796;42.654;23.316;2023-06-01T02:31:06;18.35;;;11.25;;
29196;SDS011;62796;42.654;23.316;2023-06-01T02:33:32;15.70;;;10.70;;
29196;SDS011;62796;42.654;23.316;2023-06-01T02:35:58;19.33;;;11.15;;
29196;SDS011;62796;42.654;23.316;2023-06-01T02:38:23;16.27;;;10.27;;
29196;SDS011;62796;42.654;23.316;2023-06-01T02:40:49;16.50;;;10.93;;
29196;SDS011;62796;42.654;23.316;2023-06-01T02:43:14;15.20;;;10.05;;
29196;SDS011;62796;42.654;23.316;2023-06-01T02:45:40;15.80;;;10.05;;
29196;SDS011;62796;42.654;23.316;2023-06-01T02:48:05;15.23;;;10.63;;
29196;SDS011;62796;42.654;23.316;2023-06-01T02:50:31;16.88;;;10.98;;
29196;SDS011;62796;42.654;23.316;2023-06-01T02:52:56;18.33;;;10.13;;
29196;SDS011;62796;42.654;23.316;2023-06-01T02:55:21;16.17;;;10.55;;
29196;SDS011;62796;42.654;23.316;2023-06-01T02:57:47;12.35;;;9.50;;
29196;SDS011;62796;42.654;23.316;2023-06-01T03:00:12;14.10;;;10.32;;
29196;SDS011;62796;42.654;23.316;2023-06-01T03:02:42;17.33;;;11.18;;
29196;SDS011;62796;42.654;23.316;2023-06-01T03:05:08;16.15;;;10.05;;
29196;SDS011;62796;42.654;23.316;2023-06-01T03:07:34;15.40;;;10.40;;
29196;SDS011;62796;42.654;23.316;2023-06-01T03:10:00;17.05;;;9.68;;
29196;SDS011;62796;42.654;23.316;2023-06-01T03:12:25;15.85;;;10.50;;
29196;SDS011;62796;42.654;23.316;2023-06-01T03:14:51;13.95;;;9.80;;
29196;SDS011;62796;42.654;23.316;2023-06-01T03:17:16;15.23;;;9.88;;
29196;SDS011;62796;42.654;23.316;2023-06-01T03:19:41;16.33;;;10.70;;
29196;SDS011;62796;42.654;23.316;2023-06-01T03:22:07;16.70;;;10.60;;
29196;SDS011;62796;42.654;23.316;2023-06-01T03:24:33;19.25;;;11.82;;
29196;SDS011;62796;42.654;23.316;2023-06-01T03:26:59;16.27;;;11.30;;
29196;SDS011;62796;42.654;23.316;2023-06-01T03:29:26;16.67;;;11.65;;
29196;SDS011;62796;42.654;23.316;2023-06-01T03:31:51;17.80;;;12.15;;
29196;SDS011;62796;42.654;23.316;2023-06-01T03:34:17;16.63;;;12.38;;
29196;SDS011;62796;42.654;23.316;2023-06-01T03:36:42;19.95;;;12.27;;
29196;SDS011;62796;42.654;23.316;2023-06-01T03:39:11;19.75;;;12.63;;
29196;SDS011;62796;42.654;23.316;2023-06-01T03:41:36;22.48;;;12.18;;
29196;SDS011;62796;42.654;23.316;2023-06-01T03:44:01;19.45;;;12.63;;
29196;SDS011;62796;42.654;23.316;2023-06-01T03:46:27;21.42;;;11.98;;
29196;SDS011;62796;42.654;23.316;2023-06-01T03:48:52;24.83;;;13.75;;
29196;SDS011;62796;42.654;23.316;2023-06-01T03:51:17;25.45;;;14.32;;
29196;SDS011;62796;42.654;23.316;2023-06-01T03:53:43;25.90;;;15.35;;
29196;SDS011;62796;42.654;23.316;2023-06-01T03:56:08;22.02;;;14.85;;
29196;SDS011;62796;42.654;23.316;2023-06-01T03:58:34;26.52;;;15.55;;
29196;SDS011;62796;42.654;23.316;2023-06-01T04:01:00;22.92;;;15.23;;
29196;SDS011;62796;42.654;23.316;2023-06-01T04:03:26;21.17;;;13.82;;
29196;SDS011;62796;42.654;23.316;2023-06-01T04:05:51;19.48;;;13.18;;
29196;SDS011;62796;42.654;23.316;2023-06-01T04:08:23;21.20;;;13.43;;
29196;SDS011;62796;42.654;23.316;2023-06-01T04:10:49;18.58;;;13.45;;
29196;SDS011;62796;42.654;23.316;2023-06-01T04:13:15;25.58;;;15.38;;
29196;SDS011;62796;42.654;23.316;2023-06-01T04:15:40;22.98;;;14.27;;
29196;SDS011;62796;42.654;23.316;2023-06-01T04:18:06;23.52;;;14.32;;
29196;SDS011;62796;42.654;23.316;2023-06-01T04:20:32;22.02;;;14.27;;
29196;SDS011;62796;42.654;23.316;2023-06-01T04:22:57;22.02;;;13.23;;
29196;SDS011;62796;42.654;23.316;2023-06-01T04:25:23;20.17;;;12.45;;
29196;SDS011;62796;42.654;23.316;2023-06-01T04:27:49;29.63;;;16.73;;
29196;SDS011;62796;42.654;23.316;2023-06-01T04:30:19;25.67;;;16.02;;
29196;SDS011;62796;42.654;23.316;2023-06-01T04:32:46;20.13;;;14.18;;
29196;SDS011;62796;42.654;23.316;2023-06-01T04:35:13;18.15;;;13.38;;
29196;SDS011;62796;42.654;23.316;2023-06-01T04:37:39;23.48;;;14.25;;
29196;SDS011;62796;42.654;23.316;2023-06-01T04:40:06;23.70;;;14.23;;
29196;SDS011;62796;42.654;23.316;2023-06-01T04:42:34;20.33;;;13.63;;
29196;SDS011;62796;42.654;23.316;2023-06-01T04:45:01;19.88;;;14.10;;
29196;SDS011;62796;42.654;23.316;2023-06-01T04:47:31;25.98;;;14.13;;
29196;SDS011;62796;42.654;23.316;2023-06-01T04:49:57;21.63;;;13.75;;
29196;SDS011;62796;42.654;23.316;2023-06-01T04:52:23;25.55;;;14.82;;
29196;SDS011;62796;42.654;23.316;2023-06-01T04:54:49;25.73;;;14.50;;
29196;SDS011;62796;42.654;23.316;2023-06-01T04:57:15;22.80;;;13.68;;
29196;SDS011;62796;42.654;23.316;2023-06-01T04:59:41;19.33;;;13.98;;
29196;SDS011;62796;42.654;23.316;2023-06-01T05:02:07;20.40;;;14.32;;
29196;SDS011;62796;42.654;23.316;2023-06-01T05:04:33;28.50;;;13.68;;
29196;SDS011;62796;42.654;23.316;2023-06-01T05:06:58;21.73;;;13.57;;
29196;SDS011;62796;42.654;23.316;2023-06-01T05:09:23;25.85;;;14.48;;
29196;SDS011;62796;42.654;23.316;2023-06-01T05:11:50;20.63;;;13.25;;
29196;SDS011;62796;42.654;23.316;2023-06-01T05:14:15;26.45;;;14.43;;
29196;SDS011;62796;42.654;23.316;2023-06-01T05:16:41;25.15;;;14.18;;
29196;SDS011;62796;42.654;23.316;2023-06-01T05:19:06;24.65;;;13.75;;
29196;SDS011;62796;42.654;23.316;2023-06-01T05:21:32;26.50;;;14.48;;
29196;SDS011;62796;42.654;23.316;2023-06-01T05:23:57;25.08;;;15.15;;
29196;SDS011;62796;42.654;23.316;2023-06-01T05:26:23;25.38;;;14.68;;
29196;SDS011;62796;42.654;23.316;2023-06-01T05:28:48;20.85;;;13.90;;
29196;SDS011;62796;42.654;23.316;2023-06-01T05:31:14;24.48;;;15.23;;
29196;SDS011;62796;42.654;23.316;2023-06-01T05:33:39;34.70;;;15.50;;
29196;SDS011;62796;42.654;23.316;2023-06-01T05:36:05;28.85;;;16.02;;
29196;SDS011;62796;42.654;23.316;2023-06-01T05:38:31;30.13;;;17.25;;
29196;SDS011;62796;42.654;23.316;2023-06-01T05:40:56;21.92;;;14.95;;
29196;SDS011;62796;42.654;23.316;2023-06-01T05:43:22;33.80;;;16.88;;
29196;SDS011;62796;42.654;23.316;2023-06-01T05:45:47;29.92;;;16.42;;
29196;SDS011;62796;42.654;23.316;2023-06-01T05:48:13;31.63;;;17.38;;
29196;SDS011;62796;42.654;23.316;2023-06-01T05:50:40;33.90;;;16.75;;
29196;SDS011;62796;42.654;23.316;2023-06-01T05:53:06;25.02;;;16.50;;
29196;SDS011;62796;42.654;23.316;2023-06-01T05:55:32;33.67;;;17.80;;
29196;SDS011;62796;42.654;23.316;2023-06-01T05:57:57;27.88;;;17.17;;
29196;SDS011;62796;42.654;23.316;2023-06-01T06:00:23;31.60;;;16.92;;
29196;SDS011;62796;42.654;23.316;2023-06-01T06:02:48;30.15;;;17.48;;
29196;SDS011;62796;42.654;23.316;2023-06-01T06:05:14;28.10;;;17.27;;
29196;SDS011;62796;42.654;23.316;2023-06-01T06:07:39;24.23;;;16.92;;
29196;SDS011;62796;42.654;23.316;2023-06-01T06:10:05;28.63;;;16.77;;
29196;SDS011;62796;42.654;23.316;2023-06-01T06:12:31;30.65;;;18.50;;
29196;SDS011;62796;42.654;23.316;2023-06-01T06:14:56;28.20;;;17.77;;
29196;SDS011;62796;42.654;23.316;2023-06-01T06:17:22;29.60;;;17.98;;
29196;SDS011;62796;42.654;23.316;2023-06-01T06:19:47;27.40;;;17.08;;
29196;SDS011;62796;42.654;23.316;2023-06-01T06:22:14;32.47;;;18.83;;
29196;SDS011;62796;42.654;23.316;2023-06-01T06:24:40;34.50;;;19.80;;
29196;SDS011;62796;42.654;23.316;2023-06-01T06:27:07;36.17;;;19.38;;
29196;SDS011;62796;42.654;23.316;2023-06-01T06:29:34;30.30;;;19.42;;
29196;SDS011;62796;42.654;23.316;2023-06-01T06:31:59;31.92;;;19.85;;
29196;SDS011;62796;42.654;23.316;2023-06-01T06:34:25;30.38;;;19.23;;
29196;SDS011;62796;42.654;23.316;2023-06-01T06:36:50;29.35;;;19.73;;
29196;SDS011;62796;42.654;23.316;2023-06-01T06:39:17;29.38;;;19.83;;
29196;SDS011;62796;42.654;23.316;2023-06-01T06:41:43;35.13;;;19.58;;
29196;SDS011;62796;42.654;23.316;2023-06-01T06:44:09;31.58;;;20.55;;
29196;SDS011;62796;42.654;23.316;2023-06-01T06:46:34;30.58;;;21.48;;
29196;SDS011;62796;42.654;23.316;2023-06-01T06:49:00;36.35;;;20.52;;
29196;SDS011;62796;42.654;23.316;2023-06-01T06:51:25;31.02;;;20.92;;
29196;SDS011;62796;42.654;23.316;2023-06-01T06:53:51;32.20;;;20.98;;
29196;SDS011;62796;42.654;23.316;2023-06-01T06:56:16;31.13;;;20.65;;
29196;SDS011;62796;42.654;23.316;2023-06-01T06:58:43;29.98;;;19.52;;
29196;SDS011;62796;42.654;23.316;2023-06-01T07:01:09;31.70;;;19.98;;
29196;SDS011;62796;42.654;23.316;2023-06-01T07:03:35;32.30;;;22.17;;
29196;SDS011;62796;42.654;23.316;2023-06-01T07:06:00;32.42;;;21.75;;
29196;SDS011;62796;42.654;23.316;2023-06-01T07:08:26;31.83;;;20.88;;
29196;SDS011;62796;42.654;23.316;2023-06-01T07:10:52;29.67;;;20.73;;
29196;SDS011;62796;42.654;23.316;2023-06-01T07:13:18;29.10;;;20.00;;
29196;SDS011;62796;42.654;23.316;2023-06-01T07:15:44;28.55;;;19.75;;
29196;SDS011;62796;42.654;23.316;2023-06-01T07:18:10;26.92;;;20.60;;
29196;SDS011;62796;42.654;23.316;2023-06-01T07:20:35;28.88;;;19.00;;
29196;SDS011;62796;42.654;23.316;2023-06-01T07:23:00;38.67;;;18.83;;
29196;SDS011;62796;42.654;23.316;2023-06-01T07:25:26;25.60;;;17.25;;
29196;SDS011;62796;42.654;23.316;2023-06-01T07:27:51;29.17;;;16.67;;
29196;SDS011;62796;42.654;23.316;2023-06-01T07:30:17;26.00;;;17.63;;
29196;SDS011;62796;42.654;23.316;2023-06-01T07:32:43;26.30;;;17.75;;
29196;SDS011;62796;42.654;23.316;2023-06-01T07:35:08;27.70;;;17.60;;
29196;SDS011;62796;42.654;23.316;2023-06-01T07:37:34;31.08;;;19.67;;
29196;SDS011;62796;42.654;23.316;2023-06-01T07:40:00;32.45;;;18.20;;
29196;SDS011;62796;42.654;23.316;2023-06-01T07:42:25;30.73;;;21.08;;
29196;SDS011;62796;42.654;23.316;2023-06-01T07:44:51;28.10;;;19.00;;
29196;SDS011;62796;42.654;23.316;2023-06-01T07:47:16;31.70;;;19.17;;
29196;SDS011;62796;42.654;23.316;2023-06-01T07:49:42;25.58;;;18.98;;
29196;SDS011;62796;42.654;23.316;2023-06-01T07:52:07;24.80;;;18.38;;
29196;SDS011;62796;42.654;23.316;2023-06-01T07:54:33;30.88;;;18.83;;
29196;SDS011;62796;42.654;23.316;2023-06-01T07:57:03;25.10;;;19.23;;
29196;SDS011;62796;42.654;23.316;2023-06-01T07:59:29;28.73;;;17.85;;
29196;SDS011;62796;42.654;23.316;2023-06-01T08:01:56;31.45;;;19.08;;
29196;SDS011;62796;42.654;23.316;2023-06-01T08:04:22;21.88;;;16.40;;
29196;SDS011;62796;42.654;23.316;2023-06-01T08:06:49;25.52;;;16.63;;
29196;SDS011;62796;42.654;23.316;2023-06-01T08:09:18;30.88;;;17.98;;
29196;SDS011;62796;42.654;23.316;2023-06-01T08:11:46;42.72;;;18.38;;
29196;SDS011;62796;42.654;23.316;2023-06-01T08:14:12;20.65;;;11.85;;
29196;SDS011;62796;42.654;23.316;2023-06-01T08:16:38;19.58;;;14.73;;
29196;SDS011;62796;42.654;23.316;2023-06-01T08:19:03;24.13;;;15.45;;
29196;SDS011;62796;42.654;23.316;2023-06-01T08:21:29;20.38;;;12.55;;
29196;SDS011;62796;42.654;23.316;2023-06-01T08:23:54;21.30;;;13.88;;
29196;SDS011;62796;42.654;23.316;2023-06-01T08:26:20;23.70;;;13.35;;
29196;SDS011;62796;42.654;23.316;2023-06-01T08:28:46;25.65;;;17.30;;
29196;SDS011;62796;42.654;23.316;2023-06-01T08:31:17;20.73;;;17.88;;
29196;SDS011;62796;42.654;23.316;2023-06-01T08:33:44;24.42;;;11.98;;
29196;SDS011;62796;42.654;23.316;2023-06-01T08:36:10;26.25;;;16.83;;
29196;SDS011;62796;42.654;23.316;2023-06-01T08:38:35;22.67;;;16.08;;
29196;SDS011;62796;42.654;23.316;2023-06-01T08:41:01;19.73;;;13.57;;
29196;SDS011;62796;42.654;23.316;2023-06-01T08:43:35;24.35;;;16.50;;
29196;SDS011;62796;42.654;23.316;2023-06-01T08:46:04;33.65;;;18.67;;
29196;SDS011;62796;42.654;23.316;2023-06-01T08:48:30;19.92;;;14.32;;
29196;SDS011;62796;42.654;23.316;2023-06-01T08:50:56;28.02;;;16.10;;
29196;SDS011;62796;42.654;23.316;2023-06-01T08:53:23;29.13;;;16.75;;
29196;SDS011;62796;42.654;23.316;2023-06-01T08:55:53;31.35;;;17.95;;
29196;SDS011;62796;42.654;23.316;2023-06-01T08:58:22;27.70;;;15.10;;
29196;SDS011;62796;42.654;23.316;2023-06-01T09:00:48;28.83;;;15.43;;
29196;SDS011;62796;42.654;23.316;2023-06-01T09:03:15;27.08;;;16.35;;
29196;SDS011;62796;42.654;23.316;2023-06-01T09:05:40;22.75;;;14.70;;
29196;SDS011;62796;42.654;23.316;2023-06-01T09:08:06;19.67;;;13.38;;
29196;SDS011;62796;42.654;23.316;2023-06-01T09:10:33;20.35;;;13.00;;
29196;SDS011;62796;42.654;23.316;2023-06-01T09:12:58;17.55;;;13.73;;
29196;SDS011;62796;42.654;23.316;2023-06-01T09:15:25;17.05;;;11.85;;
29196;SDS011;62796;42.654;23.316;2023-06-01T09:17:51;15.60;;;11.15;;
29196;SDS011;62796;42.654;23.316;2023-06-01T09:20:23;22.98;;;11.50;;
29196;SDS011;62796;42.654;23.316;2023-06-01T09:22:53;18.98;;;10.55;;
29196;SDS011;62796;42.654;23.316;2023-06-01T09:25:24;17.27;;;10.30;;
29196;SDS011;62796;42.654;23.316;2023-06-01T09:27:52;20.20;;;10.77;;
29196;SDS011;62796;42.654;23.316;2023-06-01T09:30:19;15.15;;;8.80;;
29196;SDS011;62796;42.654;23.316;2023-06-01T09:32:46;14.48;;;8.48;;
29196;SDS011;62796;42.654;23.316;2023-06-01T09:35:15;12.05;;;7.55;;
29196;SDS011;62796;42.654;23.316;2023-06-01T09:38:01;12.63;;;6.68;;
29196;SDS011;62796;42.654;23.316;2023-06-01T09:40:30;20.52;;;9.23;;
29196;SDS011;62796;42.654;23.316;2023-06-01T09:42:56;14.82;;;10.27;;
29196;SDS011;62796;42.654;23.316;2023-06-01T09:45:22;26.23;;;11.65;;
29196;SDS011;62796;42.654;23.316;2023-06-01T09:47:49;15.60;;;11.07;;
29196;SDS011;62796;42.654;23.316;2023-06-01T09:50:37;23.77;;;13.10;;
29196;SDS011;62796;42.654;23.316;2023-06-01T09:53:03;21.98;;;13.27;;
29196;SDS011;62796;42.654;23.316;2023-06-01T09:55:30;14.57;;;10.40;;
29196;SDS011;62796;42.654;23.316;2023-06-01T10:00:45;13.15;;;7.78;;
29196;SDS011;62796;42.654;23.316;2023-06-01T10:03:12;11.82;;;6.68;;
29196;SDS011;62796;42.654;23.316;2023-06-01T10:05:39;9.65;;;6.85;;
29196;SDS011;62796;42.654;23.316;2023-06-01T10:08:05;10.73;;;7.20;;
29196;SDS011;62796;42.654;23.316;2023-06-01T10:10:31;10.32;;;6.53;;
29196;SDS011;62796;42.654;23.316;2023-06-01T10:12:58;10.77;;;6.10;;
29196;SDS011;62796;42.654;23.316;2023-06-01T10:15:23;13.05;;;6.93;;
29196;SDS011;62796;42.654;23.316;2023-06-01T10:17:49;9.23;;;5.80;;
29196;SDS011;62796;42.654;23.316;2023-06-01T10:20:15;13.05;;;5.93;;
29196;SDS011;62796;42.654;23.316;2023-06-01T10:22:41;11.30;;;6.30;;
29196;SDS011;62796;42.654;23.316;2023-06-01T10:25:08;11.52;;;5.97;;
29196;SDS011;62796;42.654;23.316;2023-06-01T10:27:41;12.35;;;6.75;;
29196;SDS011;62796;42.654;23.316;2023-06-01T10:30:10;14.23;;;6.10;;
29196;SDS011;62796;42.654;23.316;2023-06-01T10:35:05;9.02;;;6.22;;
29196;SDS011;62796;42.654;23.316;2023-06-01T10:37:37;8.80;;;6.28;;
29196;SDS011;62796;42.654;23.316;2023-06-01T10:40:36;17.15;;;6.68;;
29196;SDS011;62796;42.654;23.316;2023-06-01T10:42:54;11.43;;;6.10;;
29196;SDS011;62796;42.654;23.316;2023-06-01T10:45:36;17.42;;;7.07;;
29196;SDS011;62796;42.654;23.316;2023-06-01T10:48:04;15.85;;;7.93;;
29196;SDS011;62796;42.654;23.316;2023-06-01T10:50:32;11.18;;;6.20;;
29196;SDS011;62796;42.654;23.316;2023-06-01T10:53:22;11.80;;;5.68;;
29196;SDS011;62796;42.654;23.316;2023-06-01T11:01:50;7.63;;;6.10;;
29196;SDS011;62796;42.654;23.316;2023-06-01T11:04:16;8.15;;;5.80;;
29196;SDS011;62796;42.654;23.316;2023-06-01T11:07:26;9.02;;;5.80;;
29196;SDS011;62796;42.654;23.316;2023-06-01T11:10:04;8.90;;;5.50;;
29196;SDS011;62796;42.654;23.316;2023-06-01T11:13:10;6.68;;;4.88;;
29196;SDS011;62796;42.654;23.316;2023-06-01T11:15:36;6.20;;;5.15;;
29196;SDS011;62796;42.654;23.316;2023-06-01T11:21:15;12.38;;;4.80;;
29196;SDS011;62796;42.654;23.316;2023-06-01T11:23:42;12.07;;;5.40;;
29196;SDS011;62796;42.654;23.316;2023-06-01T11:26:09;13.75;;;5.95;;
29196;SDS011;62796;42.654;23.316;2023-06-01T11:28:39;9.05;;;5.65;;
29196;SDS011;62796;42.654;23.316;2023-06-01T11:31:08;9.93;;;5.72;;
29196;SDS011;62796;42.654;23.316;2023-06-01T11:33:35;9.90;;;5.43;;
29196;SDS011;62796;42.654;23.316;2023-06-01T11:36:03;10.23;;;5.90;;
29196;SDS011;62796;42.654;23.316;2023-06-01T11:38:40;9.82;;;5.75;;
29196;SDS011;62796;42.654;23.316;2023-06-01T11:41:06;11.38;;;5.50;;
29196;SDS011;62796;42.654;23.316;2023-06-01T11:43:33;11.52;;;5.15;;
29196;SDS011;62796;42.654;23.316;2023-06-01T11:45:59;10.98;;;5.22;;
29196;SDS011;62796;42.654;23.316;2023-06-01T11:48:29;9.82;;;5.30;;
29196;SDS011;62796;42.654;23.316;2023-06-01T11:50:54;10.93;;;5.05;;
29196;SDS011;62796;42.654;23.316;2023-06-01T11:53:21;9.18;;;4.72;;
29196;SDS011;62796;42.654;23.316;2023-06-01T11:55:47;12.30;;;4.80;;
29196;SDS011;62796;42.654;23.316;2023-06-01T11:58:19;6.10;;;4.88;;
29196;SDS011;62796;42.654;23.316;2023-06-01T12:00:48;8.57;;;4.90;;
29196;SDS011;62796;42.654;23.316;2023-06-01T12:03:14;11.48;;;5.00;;
29196;SDS011;62796;42.654;23.316;2023-06-01T12:05:40;8.63;;;4.68;;
29196;SDS011;62796;42.654;23.316;2023-06-01T12:08:15;8.25;;;5.30;;
29196;SDS011;62796;42.654;23.316;2023-06-01T12:10:45;6.30;;;5.10;;
29196;SDS011;62796;42.654;23.316;2023-06-01T12:13:16;11.07;;;5.97;;
29196;SDS011;62796;42.654;23.316;2023-06-01T12:15:42;7.60;;;5.85;;
29196;SDS011;62796;42.654;23.316;2023-06-01T12:18:09;13.48;;;6.00;;
29196;SDS011;62796;42.654;23.316;2023-06-01T12:20:38;10.90;;;6.72;;
29196;SDS011;62796;42.654;23.316;2023-06-01T12:25:34;11.70;;;6.85;;
29196;SDS011;62796;42.654;23.316;2023-06-01T12:28:04;10.30;;;6.80;;
29196;SDS011;62796;42.654;23.316;2023-06-01T12:30:31;16.05;;;7.55;;
29196;SDS011;62796;42.654;23.316;2023-06-01T12:32:57;13.48;;;7.22;;
29196;SDS011;62796;42.654;23.316;2023-06-01T12:35:23;13.75;;;7.50;;
29196;SDS011;62796;42.654;23.316;2023-06-01T12:40:36;10.93;;;7.05;;
29196;SDS011;62796;42.654;23.316;2023-06-01T12:43:03;13.32;;;6.68;;
29196;SDS011;62796;42.654;23.316;2023-06-01T12:45:36;8.55;;;6.18;;
29196;SDS011;62796;42.654;23.316;2023-06-01T12:48:05;11.30;;;6.90;;
29196;SDS011;62796;42.654;23.316;2023-06-01T12:50:31;14.80;;;7.10;;
29196;SDS011;62796;42.654;23.316;2023-06-01T12:52:57;20.35;;;8.50;;
29196;SDS011;62796;42.654;23.316;2023-06-01T12:55:22;10.38;;;7.57;;
29196;SDS011;62796;42.654;23.316;2023-06-01T12:57:54;15.95;;;8.63;;
29196;SDS011;62796;42.654;23.316;2023-06-01T13:00:20;14.40;;;8.70;;
29196;SDS011;62796;42.654;23.316;2023-06-01T13:02:46;12.77;;;7.72;;
29196;SDS011;62796;42.654;23.316;2023-06-01T13:05:15;8.98;;;6.65;;
29196;SDS011;62796;42.654;23.316;2023-06-01T13:07:44;12.82;;;6.57;;
29196;SDS011;62796;42.654;23.316;2023-06-01T13:10:10;14.75;;;6.68;;
29196;SDS011;62796;42.654;23.316;2023-06-01T13:12:36;10.95;;;6.25;;
29196;SDS011;62796;42.654;23.316;2023-06-01T13:15:02;8.70;;;4.95;;
29196;SDS011;62796;42.654;23.316;2023-06-01T13:17:30;6.32;;;4.22;;
29196;SDS011;62796;42.654;23.316;2023-06-01T13:19:56;6.13;;;3.47;;
29196;SDS011;62796;42.654;23.316;2023-06-01T13:22:21;4.97;;;3.55;;
29196;SDS011;62796;42.654;23.316;2023-06-01T13:24:47;4.05;;;3.10;;
29196;SDS011;62796;42.654;23.316;2023-06-01T13:27:13;6.88;;;3.00;;
29196;SDS011;62796;42.654;23.316;2023-06-01T13:29:39;4.45;;;3.33;;
29196;SDS011;62796;42.654;23.316;2023-06-01T13:32:04;3.83;;;2.80;;
29196;SDS011;62796;42.654;23.316;2023-06-01T13:34:30;4.47;;;3.10;;
29196;SDS011;62796;42.654;23.316;2023-06-01T13:36:56;4.65;;;2.97;;
29196;SDS011;62796;42.654;23.316;2023-06-01T13:39:22;6.05;;;2.97;;
29196;SDS011;62796;42.654;23.316;2023-06-01T13:41:48;4.82;;;3.15;;
29196;SDS011;62796;42.654;23.316;2023-06-01T13:44:13;5.38;;;2.97;;
29196;SDS011;62796;42.654;23.316;2023-06-01T13:46:39;3.75;;;2.90;;
29196;SDS011;62796;42.654;23.316;2023-06-01T13:49:04;3.05;;;2.38;;
29196;SDS011;62796;42.654;23.316;2023-06-01T13:51:30;3.65;;;2.95;;
29196;SDS011;62796;42.654;23.316;2023-06-01T13:53:55;5.28;;;2.83;;
29196;SDS011;62796;42.654;23.316;2023-06-01T13:56:21;4.07;;;2.75;;
29196;SDS011;62796;42.654;23.316;2023-06-01T13:58:48;3.83;;;3.00;;
29196;SDS011;62796;42.654;23.316;2023-06-01T14:01:13;4.30;;;3.05;;
29196;SDS011;62796;42.654;23.316;2023-06-01T14:03:39;4.07;;;2.83;;
29196;SDS011;62796;42.654;23.316;2023-06-01T14:06:04;5.68;;;3.55;;
29196;SDS011;62796;42.654;23.316;2023-06-01T14:08:30;5.18;;;3.50;;
29196;SDS011;62796;42.654;23.316;2023-06-01T14:10:56;5.78;;;3.60;;
29196;SDS011;62796;42.654;23.316;2023-06-01T14:13:21;7.03;;;3.75;;
29196;SDS011;62796;42.654;23.316;2023-06-01T14:15:47;4.97;;;4.07;;
29196;SDS011;62796;42.654;23.316;2023-06-01T14:18:12;4.75;;;3.95;;
29196;SDS011;62796;42.654;23.316;2023-06-01T14:20:38;5.03;;;4.00;;
29196;SDS011;62796;42.654;23.316;2023-06-01T14:23:03;5.22;;;4.07;;
29196;SDS011;62796;42.654;23.316;2023-06-01T14:25:29;6.10;;;4.03;;
29196;SDS011;62796;42.654;23.316;2023-06-01T14:27:55;7.15;;;4.28;;
29196;SDS011;62796;42.654;23.316;2023-06-01T14:30:20;4.82;;;4.30;;
29196;SDS011;62796;42.654;23.316;2023-06-01T14:32:45;6.78;;;4.07;;
29196;SDS011;62796;42.654;23.316;2023-06-01T14:35:11;6.25;;;4.68;;
29196;SDS011;62796;42.654;23.316;2023-06-01T14:37:40;6.78;;;4.38;;
29196;SDS011;62796;42.654;23.316;2023-06-01T14:40:08;9.15;;;4.95;;
29196;SDS011;62796;42.654;23.316;2023-06-01T14:42:33;11.00;;;5.45;;
29196;SDS011;62796;42.654;23.316;2023-06-01T14:44:59;9.15;;;5.28;;
29196;SDS011;62796;42.654;23.316;2023-06-01T14:47:24;7.85;;;5.65;;
29196;SDS011;62796;42.654;23.316;2023-06-01T14:49:50;10.57;;;5.90;;
29196;SDS011;62796;42.654;23.316;2023-06-01T14:52:17;10.98;;;6.30;;